createdAt,value
2022-10-15T00:01:20.732Z,99512.25
2022-10-15T00:03:47.454Z,99502.34
2022-10-15T00:06:17.359Z,99500.72
2022-10-15T00:08:44.708Z,99497.66
2022-10-15T00:11:17.596Z,99509.53
2022-10-15T00:13:45.290Z,99496.22
2022-10-15T00:16:15.348Z,99466.88
2022-10-15T00:18:42.839Z,99463.97
2022-10-15T00:21:12.044Z,99456.00
2022-10-15T00:23:39.092Z,99456.81
2022-10-15T00:26:08.577Z,99448.41
2022-10-15T00:28:35.610Z,99452.53
2022-10-15T00:31:08.702Z,99447.41
2022-10-15T00:33:35.951Z,99434.31
2022-10-15T00:36:09.239Z,99427.81
2022-10-15T00:38:36.475Z,99441.81
2022-10-15T00:41:04.893Z,99421.19
2022-10-15T00:43:53.179Z,99417.25
2022-10-15T00:46:39.804Z,99425.63
2022-10-15T00:49:24.663Z,99417.44
2022-10-15T00:51:59.322Z,99417.75
2022-10-15T00:54:28.312Z,99411.44
2022-10-15T00:56:55.568Z,99411.09
2022-10-15T00:59:26.248Z,99401.38
2022-10-15T01:01:54.662Z,99403.44
2022-10-15T01:04:23.587Z,99397.63
2022-10-15T01:06:50.211Z,99382.06
2022-10-15T01:09:16.980Z,99368.09
2022-10-15T01:11:50.671Z,99354.97
2022-10-15T01:14:43.310Z,99359.91
2022-10-15T01:17:18.972Z,99365.69
2022-10-15T01:20:16.622Z,99354.44
2022-10-15T01:22:58.359Z,99353.94
2022-10-15T01:25:46.835Z,99355.13
2022-10-15T01:28:58.684Z,99347.44
2022-10-15T01:31:54.502Z,99344.88
2022-10-15T01:34:35.656Z,99341.13
2022-10-15T01:37:20.586Z,99332.59
2022-10-15T01:39:55.560Z,99328.16
2022-10-15T01:42:29.082Z,99333.25
2022-10-15T01:45:00.767Z,99327.31
2022-10-15T01:47:34.485Z,99334.28
2022-10-15T01:50:03.582Z,99330.53
2022-10-15T01:52:36.027Z,99326.28
2022-10-15T01:55:05.758Z,99323.53
2022-10-15T01:57:33.465Z,99318.06
2022-10-15T02:00:02.085Z,99321.66
2022-10-15T02:02:29.025Z,99322.84
2022-10-15T02:04:55.706Z,99317.38
2022-10-15T02:07:37.047Z,99310.03
2022-10-15T02:10:18.458Z,99303.91
2022-10-15T02:13:04.827Z,99314.59
2022-10-15T02:15:55.701Z,99307.41
2022-10-15T02:18:55.901Z,99306.38
2022-10-15T02:21:48.304Z,99306.53
2022-10-15T02:24:25.669Z,99292.41
2022-10-15T02:26:58.036Z,99286.59
2022-10-15T02:29:30.207Z,99287.78
2022-10-15T02:31:59.274Z,99292.06
2022-10-15T02:34:29.976Z,99294.75
2022-10-15T02:37:03.766Z,99291.84
2022-10-15T02:39:30.567Z,99294.72
2022-10-15T02:41:57.776Z,99298.13
2022-10-15T02:44:24.391Z,99290.84
2022-10-15T02:46:51.218Z,99290.34
2022-10-15T02:49:19.729Z,99293.41
2022-10-15T02:51:46.383Z,99288.31
2022-10-15T02:54:12.977Z,99285.22
2022-10-15T02:56:39.866Z,99290.69
2022-10-15T02:59:07.340Z,99275.16
2022-10-15T03:01:34.637Z,99286.94
2022-10-15T03:04:01.935Z,99284.38
2022-10-15T03:06:28.874Z,99285.06
2022-10-15T03:08:55.605Z,99279.78
2022-10-15T03:11:22.274Z,99283.53
2022-10-15T03:13:48.956Z,99284.38
2022-10-15T03:16:15.668Z,99280.81
2022-10-15T03:18:42.320Z,99289.81
2022-10-15T03:21:09.097Z,99294.94
2022-10-15T03:23:35.875Z,99289.66
2022-10-15T03:26:02.514Z,99293.56
2022-10-15T03:28:29.242Z,99289.31
2022-10-15T03:30:55.879Z,99293.88
2022-10-15T03:33:25.036Z,99293.53
2022-10-15T03:35:52.791Z,99291.16
2022-10-15T03:38:19.977Z,99294.75
2022-10-15T03:40:46.886Z,99302.41
2022-10-15T03:43:13.659Z,99302.75
2022-10-15T03:45:40.579Z,99298.31
2022-10-15T03:48:07.635Z,99288.28
2022-10-15T03:50:34.550Z,99290.81
2022-10-15T03:53:04.328Z,99287.56
2022-10-15T03:55:31.350Z,99291.25
2022-10-15T03:57:57.963Z,99300.97
2022-10-15T04:00:24.642Z,99291.75
2022-10-15T04:02:51.342Z,99300.63
2022-10-15T04:05:18.036Z,99292.00
2022-10-15T04:07:44.890Z,99294.38
2022-10-15T04:10:11.577Z,99297.59
2022-10-15T04:12:41.106Z,99295.56
2022-10-15T04:15:08.263Z,99288.94
2022-10-15T04:17:34.959Z,99293.69
2022-10-15T04:20:01.674Z,99294.03
2022-10-15T04:22:28.644Z,99278.34
2022-10-15T04:24:55.378Z,99278.19
2022-10-15T04:27:22.005Z,99277.13
2022-10-15T04:29:51.775Z,99289.06
2022-10-15T04:32:18.692Z,99283.59
2022-10-15T04:34:48.145Z,99275.22
2022-10-15T04:37:15.924Z,99289.41
2022-10-15T04:39:42.889Z,99284.16
2022-10-15T04:42:09.526Z,99283.94
2022-10-15T04:44:36.129Z,99284.28
2022-10-15T04:47:02.723Z,99291.53
2022-10-15T04:49:29.369Z,99286.25
2022-10-15T04:51:56.673Z,99284.72
2022-10-15T04:54:23.394Z,99289.47
2022-10-15T04:56:50.039Z,99291.31
2022-10-15T04:59:16.688Z,99285.50
2022-10-15T05:01:43.318Z,99293.28
2022-10-15T05:04:13.250Z,99306.28
2022-10-15T05:06:40.210Z,99304.38
2022-10-15T05:09:07.275Z,99302.22
2022-10-15T05:11:37.540Z,99302.41
2022-10-15T05:14:04.675Z,99299.63
2022-10-15T05:16:31.427Z,99301.69
2022-10-15T05:19:06.187Z,99304.59
2022-10-15T05:21:34.180Z,99308.91
2022-10-15T05:24:01.420Z,99306.81
2022-10-15T05:26:29.691Z,99311.81
2022-10-15T05:28:58.205Z,99306.03
2022-10-15T05:31:28.611Z,99326.94
2022-10-15T05:33:55.684Z,99313.84
2022-10-15T05:36:28.232Z,99315.56
2022-10-15T05:38:57.545Z,99315.63
2022-10-15T05:41:25.801Z,99315.63
2022-10-15T05:43:54.457Z,99317.31
2022-10-15T05:46:21.519Z,99314.41
2022-10-15T05:48:56.700Z,99318.34
2022-10-15T05:51:24.874Z,99313.56
2022-10-15T05:53:52.733Z,99311.03
2022-10-15T05:56:19.592Z,99316.66
2022-10-15T05:58:46.361Z,99323.94
2022-10-15T06:01:13.629Z,99322.25
2022-10-15T06:03:41.830Z,99320.88
2022-10-15T06:06:34.882Z,99321.91
2022-10-15T06:09:04.437Z,99330.19
2022-10-15T06:11:31.099Z,99317.72
2022-10-15T06:13:57.937Z,99322.88
2022-10-15T06:16:24.607Z,99329.94
2022-10-15T06:18:53.395Z,99335.63
2022-10-15T06:21:20.358Z,99331.88
2022-10-15T06:23:47.322Z,99336.06
2022-10-15T06:26:14.023Z,99331.81
2022-10-15T06:28:40.906Z,99332.94
2022-10-15T06:31:08.155Z,99344.41
2022-10-15T06:33:35.580Z,99347.13
2022-10-15T06:36:10.120Z,99343.91
2022-10-15T06:38:37.185Z,99352.72
2022-10-15T06:41:05.497Z,99364.09
2022-10-15T06:43:34.134Z,99357.84
2022-10-15T06:46:03.487Z,99354.63
2022-10-15T06:48:30.198Z,99350.22
2022-10-15T06:50:59.223Z,99363.91
2022-10-15T06:53:25.979Z,99360.94
2022-10-15T06:55:56.572Z,99362.81
2022-10-15T06:58:23.348Z,99361.81
2022-10-15T07:00:50.137Z,99374.06
2022-10-15T07:03:16.846Z,99373.06
2022-10-15T07:05:45.304Z,99373.06
2022-10-15T07:08:16.815Z,99377.41
2022-10-15T07:10:45.957Z,99376.72
2022-10-15T07:13:16.134Z,99376.97
2022-10-15T07:15:44.682Z,99375.69
2022-10-15T07:18:11.334Z,99371.13
2022-10-15T07:20:38.001Z,99388.22
2022-10-15T07:23:04.677Z,99387.84
2022-10-15T07:25:31.704Z,99381.75
2022-10-15T07:27:58.646Z,99380.75
2022-10-15T07:30:29.076Z,99377.41
2022-10-15T07:32:57.314Z,99378.25
2022-10-15T07:35:25.087Z,99388.81
2022-10-15T07:37:51.830Z,99384.06
2022-10-15T07:40:19.237Z,99392.97
2022-10-15T07:42:52.859Z,99394.38
2022-10-15T07:45:19.614Z,99402.47
2022-10-15T07:47:46.283Z,99401.41
2022-10-15T07:50:12.928Z,99399.78
2022-10-15T07:52:39.944Z,99407.28
2022-10-15T07:55:09.808Z,99404.84
2022-10-15T07:57:36.473Z,99404.59
2022-10-15T08:00:03.742Z,99413.88
2022-10-15T08:02:30.477Z,99405.41
2022-10-15T08:04:57.298Z,99411.88
2022-10-15T08:07:23.940Z,99412.56
2022-10-15T08:09:50.630Z,99411.03
2022-10-15T08:12:17.459Z,99409.81
2022-10-15T08:14:44.113Z,99399.84
2022-10-15T08:17:11.466Z,99411.03
2022-10-15T08:19:38.167Z,99413.09
2022-10-15T08:22:05.645Z,99407.66
2022-10-15T08:24:32.262Z,99413.78
2022-10-15T08:26:59.024Z,99406.97
2022-10-15T08:29:25.999Z,99412.47
2022-10-15T08:31:52.592Z,99419.94
2022-10-15T08:34:19.306Z,99417.22
2022-10-15T08:36:46.205Z,99420.63
2022-10-15T08:39:12.956Z,99423.38
2022-10-15T08:41:50.243Z,99418.63
2022-10-15T08:44:30.056Z,99418.81
2022-10-15T08:47:07.308Z,99406.09
2022-10-15T08:49:53.037Z,99411.41
2022-10-15T08:52:43.055Z,99425.31
2022-10-15T08:55:16.597Z,99433.56
2022-10-15T08:57:46.218Z,99445.00
2022-10-15T09:01:08.754Z,99461.72
2022-10-15T09:03:44.635Z,99459.22
2022-10-15T09:06:15.078Z,99457.59
2022-10-15T09:09:00.605Z,99456.91
2022-10-15T09:11:54.191Z,99467.34
2022-10-15T09:14:27.961Z,99461.59
2022-10-15T09:16:54.806Z,99474.03
2022-10-15T09:20:07.839Z,99439.63
2022-10-15T09:22:35.296Z,99460.44
2022-10-15T09:25:23.051Z,99464.72
2022-10-15T09:27:51.514Z,99462.50
2022-10-15T09:30:33.873Z,99459.81
2022-10-15T09:33:20.730Z,99468.16
2022-10-15T09:35:56.068Z,99481.28
2022-10-15T09:39:03.307Z,99472.06
2022-10-15T09:41:56.433Z,99473.44
2022-10-15T09:44:26.474Z,99479.94
2022-10-15T09:46:53.266Z,99499.03
2022-10-15T09:49:30.259Z,99499.19
2022-10-15T09:52:06.465Z,99500.19
2022-10-15T09:55:15.387Z,99498.34
2022-10-15T09:57:48.976Z,99492.00
2022-10-15T10:00:15.717Z,99486.78
2022-10-15T10:02:42.579Z,99494.31
2022-10-15T10:05:42.073Z,99501.13
2022-10-15T10:08:24.212Z,99503.03
2022-10-15T10:10:59.244Z,99505.59
2022-10-15T10:13:30.236Z,99516.53
2022-10-15T10:16:05.963Z,99522.31
2022-10-15T10:18:33.131Z,99530.84
2022-10-15T10:21:02.637Z,99534.41
2022-10-15T10:23:39.529Z,99534.28
2022-10-15T10:26:09.514Z,99542.63
2022-10-15T10:28:49.049Z,99541.06
2022-10-15T10:31:15.816Z,99540.78
2022-10-15T10:33:47.783Z,99543.19
2022-10-15T10:36:30.895Z,99539.09
2022-10-15T10:39:15.808Z,99532.31
2022-10-15T10:41:49.632Z,99548.41
2022-10-15T10:44:28.545Z,99549.75
2022-10-15T10:47:09.407Z,99558.66
2022-10-15T10:49:40.323Z,99564.44
2022-10-15T10:52:38.327Z,99572.66
2022-10-15T10:55:06.591Z,99585.28
2022-10-15T10:57:42.958Z,99600.69
2022-10-15T11:00:17.439Z,99601.03
2022-10-15T11:02:44.236Z,99611.47
2022-10-15T11:05:12.404Z,99628.59
2022-10-15T11:07:53.239Z,99642.25
2022-10-15T11:10:33.429Z,99649.28
2022-10-15T11:13:43.120Z,99659.03
2022-10-15T11:16:33.760Z,99663.97
2022-10-15T11:19:54.732Z,99680.59
2022-10-15T11:22:54.245Z,99697.69
2022-10-15T11:25:26.784Z,99704.72
2022-10-15T11:28:12.216Z,99724.75
2022-10-15T11:30:42.914Z,99731.44
2022-10-15T11:33:21.761Z,99750.63
2022-10-15T11:36:01.084Z,99742.34
2022-10-15T11:38:50.872Z,99769.09
2022-10-15T11:41:51.113Z,99792.22
2022-10-15T11:44:35.216Z,99815.16
2022-10-15T11:47:14.440Z,99811.41
2022-10-15T11:49:59.332Z,99819.78
2022-10-15T11:53:10.663Z,99838.44
2022-10-15T11:55:52.313Z,99869.28
2022-10-15T11:58:43.504Z,99875.63
2022-10-15T12:01:20.243Z,99881.66
2022-10-15T12:04:11.960Z,99891.59
2022-10-15T12:06:46.473Z,99902.69
2022-10-15T12:09:26.806Z,99912.47
2022-10-15T12:12:04.303Z,99935.09
2022-10-15T12:14:40.180Z,99944.88
2022-10-15T12:17:31.325Z,99967.84
2022-10-15T12:20:09.780Z,99975.91
2022-10-15T12:23:00.981Z,99987.22
2022-10-15T12:25:33.694Z,99988.72
2022-10-15T12:28:15.583Z,100003.50
2022-10-15T12:30:53.070Z,100009.88
2022-10-15T12:33:45.349Z,100028.59
2022-10-15T12:36:30.671Z,100049.13
2022-10-15T12:39:11.592Z,100067.00
2022-10-15T12:41:50.643Z,100075.03
2022-10-15T12:44:22.478Z,100087.19
2022-10-15T12:46:49.677Z,100090.97
2022-10-15T12:49:30.882Z,100100.44
2022-10-15T12:52:00.112Z,100109.88
2022-10-15T12:54:57.838Z,100118.28
2022-10-15T12:57:37.417Z,100134.59
2022-10-15T13:00:29.334Z,100140.78
2022-10-15T13:03:02.605Z,100170.13
2022-10-15T13:05:30.875Z,100177.81
2022-10-15T13:07:59.888Z,100193.63
2022-10-15T13:10:39.601Z,100195.88
2022-10-15T13:13:17.458Z,100211.00
2022-10-15T13:15:54.490Z,100227.25
2022-10-15T13:18:24.145Z,100231.69
2022-10-15T13:20:54.580Z,100238.19
2022-10-15T13:23:31.826Z,100243.47
2022-10-15T13:26:27.722Z,100252.59
2022-10-15T13:28:57.615Z,100238.38
2022-10-15T13:31:30.456Z,100249.16
2022-10-15T13:34:17.928Z,100248.63
2022-10-15T13:36:45.326Z,100257.19
2022-10-15T13:39:35.441Z,100262.13
2022-10-15T13:42:26.377Z,100272.63
2022-10-15T13:45:15.921Z,100258.06
2022-10-15T13:47:51.153Z,100261.03
2022-10-15T13:50:19.259Z,100260.34
2022-10-15T13:52:49.998Z,100270.63
2022-10-15T13:55:24.572Z,100282.75
2022-10-15T13:57:57.109Z,100284.69
2022-10-15T14:00:31.504Z,100275.41
2022-10-15T14:03:22.477Z,100276.25
2022-10-15T14:05:52.631Z,100288.16
2022-10-15T14:08:22.950Z,100278.53
2022-10-15T14:10:52.176Z,100279.25
2022-10-15T14:13:18.913Z,100278.69
2022-10-15T14:15:53.900Z,100289.41
2022-10-15T14:18:33.341Z,100288.84
2022-10-15T14:21:00.788Z,100312.13
2022-10-15T14:23:28.396Z,100304.31
2022-10-15T14:26:03.476Z,100318.25
2022-10-15T14:28:32.936Z,100327.34
2022-10-15T14:31:01.591Z,100329.59
2022-10-15T14:33:37.475Z,100327.06
2022-10-15T14:36:26.106Z,100356.22
2022-10-15T14:38:54.984Z,100357.19
2022-10-15T14:41:30.688Z,100376.69
2022-10-15T14:44:18.736Z,100382.44
2022-10-15T14:46:49.646Z,100398.69
2022-10-15T14:49:26.871Z,100399.44
2022-10-15T14:52:17.323Z,100399.16
2022-10-15T14:54:59.551Z,100396.84
2022-10-15T14:57:29.275Z,100396.09
2022-10-15T14:59:57.685Z,100389.50
2022-10-15T15:02:27.355Z,100387.41
2022-10-15T15:05:12.512Z,100380.03
2022-10-15T15:07:40.314Z,100377.28
2022-10-15T15:10:08.895Z,100371.34
2022-10-15T15:12:38.146Z,100364.91
2022-10-15T15:15:12.586Z,100372.25
2022-10-15T15:17:39.208Z,100362.63
2022-10-15T15:20:06.516Z,100352.41
2022-10-15T15:22:35.554Z,100356.53
2022-10-15T15:25:06.666Z,100346.47
2022-10-15T15:27:37.218Z,100348.16
2022-10-15T15:30:06.719Z,100360.44
2022-10-15T15:32:33.892Z,100351.47
2022-10-15T15:35:00.836Z,100362.44
2022-10-15T15:37:30.248Z,100362.91
2022-10-15T15:39:56.972Z,100365.34
2022-10-15T15:42:25.129Z,100360.38
2022-10-15T15:44:52.922Z,100372.44
2022-10-15T15:47:22.380Z,100358.13
2022-10-15T15:49:49.059Z,100363.75
2022-10-15T15:52:18.792Z,100351.78
2022-10-15T15:54:48.868Z,100339.38
2022-10-15T15:57:15.751Z,100337.13
2022-10-15T15:59:42.393Z,100338.28
2022-10-15T16:02:10.326Z,100331.28
2022-10-15T16:04:37.147Z,100325.47
2022-10-15T16:07:03.829Z,100313.88
2022-10-15T16:09:30.606Z,100309.88
2022-10-15T16:11:57.471Z,100313.19
2022-10-15T16:14:24.200Z,100303.69
2022-10-15T16:16:50.804Z,100298.22
2022-10-15T16:19:17.485Z,100296.28
2022-10-15T16:21:44.244Z,100298.59
2022-10-15T16:24:10.989Z,100297.69
2022-10-15T16:26:37.639Z,100301.84
2022-10-15T16:29:04.343Z,100299.31
2022-10-15T16:31:33.320Z,100289.94
2022-10-15T16:33:59.919Z,100282.75
2022-10-15T16:36:26.634Z,100283.06
2022-10-15T16:38:53.904Z,100276.50
2022-10-15T16:41:20.651Z,100259.44
2022-10-15T16:43:48.278Z,100248.31
2022-10-15T16:46:16.836Z,100232.38
2022-10-15T16:48:43.667Z,100210.63
2022-10-15T16:51:14.611Z,100185.75
2022-10-15T16:53:43.022Z,100169.19
2022-10-15T16:56:32.675Z,100153.53
2022-10-15T16:58:59.303Z,100132.53
2022-10-15T17:01:28.346Z,100126.34
2022-10-15T17:03:55.532Z,100109.09
2022-10-15T17:06:26.030Z,100091.28
2022-10-15T17:08:54.678Z,100062.03
2022-10-15T17:11:22.992Z,100039.94
2022-10-15T17:13:53.927Z,100023.41
2022-10-15T17:16:32.617Z,99992.81
2022-10-15T17:18:59.498Z,99969.84
2022-10-15T17:21:28.699Z,99955.38
2022-10-15T17:23:57.735Z,99931.41
2022-10-15T17:26:27.283Z,99922.94
2022-10-15T17:28:54.429Z,99927.44
2022-10-15T17:31:24.012Z,99903.69
2022-10-15T17:34:02.643Z,99887.13
2022-10-15T17:36:32.129Z,99881.13
2022-10-15T17:39:00.093Z,99864.44
2022-10-15T17:41:30.184Z,99864.75
2022-10-15T17:43:57.609Z,99857.38
2022-10-15T17:46:27.777Z,99841.69
2022-10-15T17:48:55.649Z,99831.78
2022-10-15T17:51:28.357Z,99819.44
2022-10-15T17:53:55.577Z,99813.03
2022-10-15T17:56:28.726Z,99815.22
2022-10-15T17:58:56.310Z,99790.63
2022-10-15T18:01:52.898Z,99791.13
2022-10-15T18:04:20.255Z,99783.34
2022-10-15T18:06:46.994Z,99767.72
2022-10-15T18:09:13.708Z,99753.38
2022-10-15T18:11:40.555Z,99738.50
2022-10-15T18:14:07.605Z,99739.66
2022-10-15T18:16:34.491Z,99732.16
2022-10-15T18:19:01.198Z,99712.19
2022-10-15T18:21:28.521Z,99721.03
2022-10-15T18:23:58.471Z,99706.34
2022-10-15T18:26:25.370Z,99693.03
2022-10-15T18:28:53.756Z,99697.13
2022-10-15T18:31:21.258Z,99684.66
2022-10-15T18:33:53.574Z,99680.41
2022-10-15T18:36:26.995Z,99680.06
2022-10-15T18:38:54.214Z,99660.41
2022-10-15T18:41:28.711Z,99651.72
2022-10-15T18:43:58.055Z,99638.19
2022-10-15T18:46:26.180Z,99636.84
2022-10-15T18:48:53.250Z,99636.84
2022-10-15T18:51:21.066Z,99632.94
2022-10-15T18:53:48.111Z,99614.72
2022-10-15T18:56:14.976Z,99617.06
2022-10-15T18:58:43.010Z,99620.09
2022-10-15T19:01:11.895Z,99609.69
2022-10-15T19:03:38.970Z,99604.91
2022-10-15T19:06:05.885Z,99599.97
2022-10-15T19:08:32.631Z,99599.25
2022-10-15T19:11:07.023Z,99588.53
2022-10-15T19:13:33.836Z,99585.47
2022-10-15T19:16:02.312Z,99585.47
2022-10-15T19:18:30.148Z,99585.13
2022-10-15T19:20:56.879Z,99586.34
2022-10-15T19:23:23.832Z,99564.28
2022-10-15T19:25:50.723Z,99566.31
2022-10-15T19:28:17.645Z,99558.81
2022-10-15T19:30:44.425Z,99569.94
2022-10-15T19:33:11.102Z,99574.88
2022-10-15T19:35:41.812Z,99570.63
2022-10-15T19:38:08.730Z,99566.31
2022-10-15T19:40:39.040Z,99573.00
2022-10-15T19:43:06.882Z,99571.09
2022-10-15T19:45:44.110Z,99552.84
2022-10-15T19:48:12.292Z,99557.97
2022-10-15T19:50:41.171Z,99544.63
2022-10-15T19:53:11.687Z,99555.22
2022-10-15T19:55:39.785Z,99551.28
2022-10-15T19:58:06.806Z,99548.19
2022-10-15T20:00:34.478Z,99541.88
2022-10-15T20:03:01.596Z,99548.03
2022-10-15T20:05:28.804Z,99538.47
2022-10-15T20:07:56.399Z,99545.66
2022-10-15T20:10:25.991Z,99521.88
2022-10-15T20:12:53.573Z,99524.63
2022-10-15T20:15:21.033Z,99535.88
2022-10-15T20:17:48.131Z,99526.50
2022-10-15T20:20:17.331Z,99526.16
2022-10-15T20:22:44.006Z,99523.09
2022-10-15T20:25:11.921Z,99529.59
2022-10-15T20:27:38.540Z,99517.09
2022-10-15T20:30:05.862Z,99515.91
2022-10-15T20:32:35.830Z,99519.16
2022-10-15T20:35:04.465Z,99518.94
2022-10-15T20:37:31.151Z,99512.84
2022-10-15T20:39:57.956Z,99554.53
2022-10-15T20:42:25.228Z,99553.69
2022-10-15T20:44:52.230Z,99560.13
2022-10-15T20:47:19.449Z,99559.94
2022-10-15T20:49:50.046Z,99559.63
2022-10-15T20:52:16.695Z,99561.72
2022-10-15T20:54:43.607Z,99563.94
2022-10-15T20:57:10.809Z,99578.78
2022-10-15T20:59:37.663Z,99580.53
2022-10-15T21:02:04.394Z,99587.16
2022-10-15T21:04:31.006Z,99581.50
2022-10-15T21:06:57.680Z,99585.75
2022-10-15T21:09:24.438Z,99582.03
2022-10-15T21:11:51.174Z,99591.63
2022-10-15T21:14:17.793Z,99604.41
2022-10-15T21:16:46.508Z,99608.63
2022-10-15T21:19:13.765Z,99602.84
2022-10-15T21:21:40.506Z,99608.63
2022-10-15T21:24:07.206Z,99606.03
2022-10-15T21:26:33.990Z,99615.09
2022-10-15T21:29:00.798Z,99606.19
2022-10-15T21:31:27.694Z,99616.13
2022-10-15T21:33:55.506Z,99617.16
2022-10-15T21:36:27.627Z,99617.16
2022-10-15T21:39:03.799Z,99621.91
2022-10-15T21:41:32.372Z,99626.69
2022-10-15T21:44:00.816Z,99628.22
2022-10-15T21:46:28.002Z,99636.75
2022-10-15T21:48:54.804Z,99646.63
2022-10-15T21:51:25.489Z,99651.75
2022-10-15T21:53:52.423Z,99652.91
2022-10-15T21:56:19.765Z,99666.75
2022-10-15T21:58:46.940Z,99665.16
2022-10-15T22:01:19.103Z,99673.31
2022-10-15T22:03:48.240Z,99680.44
2022-10-15T22:06:15.391Z,99675.34
2022-10-15T22:08:42.537Z,99671.78
2022-10-15T22:11:19.950Z,99675.03
2022-10-15T22:13:48.608Z,99690.28
2022-10-15T22:16:16.681Z,99696.31
2022-10-15T22:18:44.037Z,99695.28
2022-10-15T22:21:22.901Z,99697.47
2022-10-15T22:24:01.446Z,99686.22
2022-10-15T22:26:31.165Z,99694.69
2022-10-15T22:29:00.730Z,99699.03
2022-10-15T22:31:27.950Z,99700.94
2022-10-15T22:33:55.218Z,99710.19
2022-10-15T22:36:27.387Z,99710.53
2022-10-15T22:41:23.518Z,99711.81
2022-10-15T22:43:50.208Z,99707.53
2022-10-15T22:46:16.835Z,99719.34
2022-10-15T22:48:49.462Z,99714.25
2022-10-15T22:51:16.472Z,99711.22
2022-10-15T22:53:44.263Z,99717.88
2022-10-15T22:56:16.702Z,99722.00
2022-10-15T22:58:43.653Z,99720.91
2022-10-15T23:01:14.223Z,99723.59
2022-10-15T23:03:43.147Z,99729.88
2022-10-15T23:06:15.750Z,99730.59
2022-10-15T23:08:43.805Z,99731.09
2022-10-15T23:11:13.720Z,99736.16
2022-10-15T23:13:41.205Z,99742.53
2022-10-15T23:16:10.780Z,99753.28
2022-10-15T23:18:37.522Z,99748.84
2022-10-15T23:21:06.749Z,99749.00
2022-10-15T23:23:33.704Z,99750.94
2022-10-15T23:26:00.392Z,99745.09
2022-10-15T23:28:27.150Z,99749.47
2022-10-15T23:30:53.892Z,99755.88
2022-10-15T23:33:20.577Z,99759.81
2022-10-15T23:35:56.554Z,99759.06
2022-10-15T23:38:23.303Z,99758.59
2022-10-15T23:40:51.729Z,99754.28
2022-10-15T23:43:18.499Z,99753.53
2022-10-15T23:45:45.147Z,99762.16
2022-10-15T23:48:11.834Z,99755.94
2022-10-15T23:50:39.678Z,99762.97
2022-10-15T23:53:06.262Z,99762.41
2022-10-15T23:55:38.072Z,99758.19
2022-10-15T23:58:04.718Z,99757.56
